Time;durP1;ratioP1;P1;durP2;ratioP2;P2;SDS_P1;SDS_P2;PMS_P1;PMS_P2;Temp;Humidity;BMP_temperature;BMP_pressure;BME280_temperature;BME280_humidity;BME280_pressure;Samples;Min_cycle;Max_cycle;Signal;HPM_P1;HPM_P2
2023/04/23 00:00:12;;;;;;;34.70;20.35;;;;;;;6.75;64.14;100047.34;1816341;78;27465;-53
2023/04/23 00:02:45;;;;;;;42.67;21.77;;;;;;;6.78;64.49;100048.66;1816401;78;25678;-57
2023/04/23 00:05:14;;;;;;;41.15;21.60;;;;;;;6.83;64.93;100050.73;1816428;78;25347;-54
2023/04/23 00:07:42;;;;;;;39.90;23.45;;;;;;;6.87;64.55;100045.02;1816484;79;25931;-56
2023/04/23 00:10:11;;;;;;;46.08;23.73;;;;;;;6.90;64.57;100043.09;1816395;78;25448;-56
2023/04/23 00:12:41;;;;;;;25.60;13.88;;;;;;;6.91;64.47;100039.86;1816501;78;27456;-55
2023/04/23 00:15:10;;;;;;;43.13;20.25;;;;;;;6.92;64.57;100038.22;1816462;79;25365;-53
2023/04/23 00:17:37;;;;;;;39.35;19.92;;;;;;;6.94;64.41;100045.22;1816437;78;25502;-56
2023/04/23 00:20:06;;;;;;;39.18;21.07;;;;;;;6.92;64.40;100040.91;1816300;78;25545;-55
2023/04/23 00:22:32;;;;;;;37.30;21.48;;;;;;;6.91;64.75;100039.86;1816481;78;25446;-55
2023/04/23 00:24:58;;;;;;;37.35;20.25;;;;;;;6.88;64.44;100038.56;1816350;79;29775;-54
2023/04/23 00:27:24;;;;;;;37.98;22.87;;;;;;;6.87;64.81;100038.84;1816365;78;32910;-55
2023/04/23 00:29:52;;;;;;;42.73;21.75;;;;;;;6.86;65.04;100035.37;1816302;79;25499;-54
2023/04/23 00:32:18;;;;;;;55.15;42.75;;;;;;;6.86;64.62;100035.89;1816295;79;25543;-57
2023/04/23 00:34:47;;;;;;;88.50;80.97;;;;;;;6.83;65.16;100033.25;1816352;78;25533;-53
2023/04/23 00:37:12;;;;;;;39.80;21.30;;;;;;;6.83;65.16;100031.12;1815878;78;27502;-56
2023/04/23 00:39:38;;;;;;;31.77;19.52;;;;;;;6.84;65.59;100034.84;1816181;78;25549;-54
2023/04/23 00:42:10;;;;;;;56.10;48.75;;;;;;;6.87;65.35;100033.47;1814549;78;25559;-55
2023/04/23 00:44:34;;;;;;;78.00;69.95;;;;;;;6.87;65.45;100032.92;1812847;78;25616;-57
2023/04/23 00:47:02;;;;;;;41.23;26.45;;;;;;;6.88;65.07;100029.16;1813301;78;25633;-58
2023/04/23 00:49:30;;;;;;;62.20;55.65;;;;;;;6.89;65.40;100023.22;1813271;78;28380;-57
2023/04/23 00:51:56;;;;;;;53.20;45.65;;;;;;;6.90;65.79;100026.17;1813160;79;25463;-57
2023/04/23 00:54:24;;;;;;;78.65;71.35;;;;;;;6.90;65.92;100028.31;1812699;79;25596;-57
2023/04/23 00:56:53;;;;;;;63.90;56.85;;;;;;;6.89;65.63;100030.73;1812646;78;25205;-57
2023/04/23 00:59:21;;;;;;;48.75;24.05;;;;;;;6.89;65.23;100024.56;1812826;78;25605;-55
2023/04/23 01:01:48;;;;;;;50.67;40.88;;;;;;;6.88;65.32;100029.16;1812581;78;28257;-56
2023/04/23 01:04:17;;;;;;;58.15;52.13;;;;;;;6.85;65.56;100027.04;1812440;79;27386;-54
2023/04/23 01:06:48;;;;;;;52.13;41.35;;;;;;;6.84;65.38;100028.11;1812728;79;25536;-55
2023/04/23 01:09:20;;;;;;;48.10;26.65;;;;;;;6.85;65.70;100026.25;1812743;78;25847;-56
2023/04/23 01:11:48;;;;;;;104.20;94.65;;;;;;;6.85;65.30;100027.59;1811317;78;25526;-58
2023/04/23 01:14:16;;;;;;;97.50;88.95;;;;;;;6.80;65.64;100025.77;1812660;78;27437;-56
2023/04/23 01:16:42;;;;;;;53.20;47.48;;;;;;;6.77;65.92;100029.03;1812484;79;25813;-56
2023/04/23 01:19:11;;;;;;;91.30;83.37;;;;;;;6.77;66.11;100030.37;1812572;79;25379;-55
2023/04/23 01:21:40;;;;;;;42.98;28.02;;;;;;;6.75;66.12;100031.21;1812501;78;25928;-55
2023/04/23 01:24:09;;;;;;;97.22;88.65;;;;;;;6.77;65.91;100038.44;1812599;78;25562;-56
2023/04/23 01:26:37;;;;;;;39.78;27.87;;;;;;;6.74;65.95;100029.59;1812734;78;27477;-53
2023/04/23 01:29:06;;;;;;;68.25;61.60;;;;;;;6.75;65.97;100035.80;1812474;79;25783;-57
2023/04/23 01:31:33;;;;;;;43.55;33.78;;;;;;;6.74;66.00;100033.63;1812554;78;25394;-53
2023/04/23 01:34:01;;;;;;;102.12;92.88;;;;;;;6.73;66.08;100030.16;1812476;79;25586;-55
2023/04/23 01:36:30;;;;;;;97.90;89.58;;;;;;;6.76;66.35;100027.97;1812566;79;25584;-54
2023/04/23 01:38:57;;;;;;;46.73;38.25;;;;;;;6.79;66.39;100034.11;1812610;79;28095;-55
2023/04/23 01:41:23;;;;;;;58.30;51.37;;;;;;;6.78;66.33;100029.30;1800591;79;25541;-56
2023/04/23 01:43:49;;;;;;;98.70;90.42;;;;;;;6.78;65.99;100029.84;1806378;79;25526;-56
2023/04/23 01:46:17;;;;;;;49.73;33.92;;;;;;;6.78;66.16;100033.87;1807114;79;25427;-54
2023/04/23 01:48:45;;;;;;;101.25;91.65;;;;;;;6.75;65.93;100027.73;1806642;78;25543;-55
2023/04/23 01:51:13;;;;;;;49.58;39.15;;;;;;;6.70;66.28;100036.10;1807161;78;27460;-55
2023/04/23 01:53:39;;;;;;;37.78;24.25;;;;;;;6.73;66.48;100034.19;1805629;78;25518;-55
2023/04/23 01:56:09;;;;;;;101.72;93.03;;;;;;;6.73;66.51;100032.84;1807086;79;25353;-56
2023/04/23 01:58:35;;;;;;;66.95;60.52;;;;;;;6.71;66.41;100029.65;1806954;79;25718;-55
2023/04/23 02:01:01;;;;;;;98.60;89.65;;;;;;;6.71;66.59;100038.27;1805245;78;25586;-52
2023/04/23 02:03:30;;;;;;;70.32;62.73;;;;;;;6.71;66.42;100029.65;1805223;79;27526;-57
2023/04/23 02:06:00;;;;;;;96.90;88.60;;;;;;;6.73;66.32;100032.05;1805393;78;25308;-56
2023/04/23 02:08:28;;;;;;;75.85;68.65;;;;;;;6.72;66.47;100037.98;1805437;79;25350;-56
2023/04/23 02:10:54;;;;;;;98.95;90.57;;;;;;;6.68;66.58;100027.53;1806442;78;25526;-56
2023/04/23 02:13:21;;;;;;;97.35;88.22;;;;;;;6.64;66.42;100030.55;1805544;78;25542;-56
2023/04/23 02:15:49;;;;;;;83.60;76.00;;;;;;;6.61;66.55;100032.47;1805471;79;27530;-54
2023/04/23 02:18:16;;;;;;;98.62;90.25;;;;;;;6.58;66.37;100031.70;1805902;78;25547;-54
2023/04/23 02:20:42;;;;;;;50.63;34.83;;;;;;;6.56;66.74;100027.71;1807083;78;25499;-53
2023/04/23 02:23:11;;;;;;;43.55;36.17;;;;;;;6.50;66.74;100029.64;1806252;79;25542;-56
2023/04/23 02:25:40;;;;;;;30.60;16.12;;;;;;;6.44;66.92;100024.89;1806316;79;25525;-56
2023/04/23 02:28:10;;;;;;;54.55;49.18;;;;;;;6.42;66.89;100031.62;1804544;79;27535;-53
2023/04/23 02:30:36;;;;;;;;;;;;;;;6.41;67.38;100034.86;1807147;78;25785;-56
2023/04/23 02:33:03;;;;;;;28.92;17.17;;;;;;;6.45;67.68;100042.62;1804544;79;25506;-55
2023/04/23 02:35:32;;;;;;;98.80;90.30;;;;;;;6.44;67.60;100028.92;1804593;78;25597;-56
2023/04/23 02:37:58;;;;;;;31.77;17.37;;;;;;;6.42;67.16;100031.62;1806114;79;25535;-56
2023/04/23 02:40:25;;;;;;;42.73;34.18;;;;;;;6.38;67.24;100028.71;1807088;79;27505;-53
2023/04/23 02:42:52;;;;;;;65.65;59.30;;;;;;;6.35;67.19;100029.28;1809644;78;32488;-55
2023/04/23 02:45:19;;;;;;;33.98;23.00;;;;;;;6.33;67.33;100028.25;1812531;79;25460;-55
2023/04/23 02:47:45;;;;;;;31.05;16.20;;;;;;;6.33;67.59;100030.11;1812483;78;25968;-52
2023/04/23 02:50:11;;;;;;;30.50;17.77;;;;;;;6.30;67.97;100026.66;1812526;78;25584;-53
2023/04/23 02:52:37;;;;;;;42.13;34.88;;;;;;;6.29;67.53;100027.20;1812493;78;27504;-55
2023/04/23 02:55:08;;;;;;;49.67;28.95;;;;;;;6.26;67.78;100024.30;1812362;79;26163;-54
2023/04/23 02:57:36;;;;;;;32.95;17.07;;;;;;;6.28;68.06;100028.83;1812534;79;25504;-54
2023/04/23 03:00:06;;;;;;;35.85;19.23;;;;;;;6.27;68.28;100028.04;1812442;79;25726;-53
2023/04/23 03:02:32;;;;;;;35.55;19.55;;;;;;;6.25;68.07;100028.05;1812500;79;25451;-56
2023/04/23 03:04:59;;;;;;;29.55;17.32;;;;;;;6.22;67.77;100022.73;1812489;79;27441;-55
2023/04/23 03:07:27;;;;;;;32.58;18.52;;;;;;;6.19;68.16;100024.64;1812406;78;25378;-52
2023/04/23 03:09:53;;;;;;;33.45;18.65;;;;;;;6.18;68.01;100027.08;1812453;78;25454;-52
2023/04/23 03:12:21;;;;;;;38.75;32.45;;;;;;;6.18;68.41;100031.11;1812453;78;34713;-52
2023/04/23 03:14:47;;;;;;;51.02;45.75;;;;;;;6.16;68.63;100031.39;1812594;79;25384;-54
2023/04/23 03:17:14;;;;;;;98.20;89.75;;;;;;;6.18;68.94;100027.08;1812491;78;27508;-53
2023/04/23 03:19:40;;;;;;;99.03;90.45;;;;;;;6.19;68.78;100026.53;1812325;79;25595;-55
2023/04/23 03:22:06;;;;;;;98.40;90.30;;;;;;;6.20;68.48;100027.59;1812440;79;25584;-54
2023/04/23 03:24:34;;;;;;;56.73;51.60;;;;;;;6.18;68.46;100027.08;1812460;78;25522;-53
2023/04/23 03:27:00;;;;;;;27.20;16.37;;;;;;;6.17;68.67;100026.81;1812500;79;25512;-55
2023/04/23 03:29:27;;;;;;;32.38;17.95;;;;;;;6.17;68.75;100023.58;1812429;79;27452;-52
2023/04/23 03:31:55;;;;;;;96.87;88.70;;;;;;;6.16;68.56;100023.86;1812369;79;25573;-53
2023/04/23 03:34:23;;;;;;;98.65;90.00;;;;;;;6.13;68.67;100020.39;1812501;78;25621;-52
2023/04/23 03:36:49;;;;;;;96.53;88.17;;;;;;;6.12;68.76;100019.61;1812392;78;25557;-54
2023/04/23 03:39:18;;;;;;;95.28;86.95;;;;;;;6.11;68.85;100022.57;1812534;78;25370;-53
2023/04/23 03:41:44;;;;;;;92.57;84.00;;;;;;;6.09;69.01;100018.03;1812402;79;27475;-56
2023/04/23 03:44:11;;;;;;;27.13;14.78;;;;;;;6.10;69.27;100020.99;1812361;78;25814;-54
2023/04/23 03:46:37;;;;;;;34.67;18.12;;;;;;;6.10;69.11;100022.33;1812439;78;25622;-53
2023/04/23 03:49:03;;;;;;;79.00;71.97;;;;;;;6.09;69.05;100024.20;1812356;78;25594;-55
2023/04/23 03:51:30;;;;;;;51.88;46.75;;;;;;;6.08;69.14;100019.11;1812513;78;25566;-56
2023/04/23 03:53:58;;;;;;;34.20;27.95;;;;;;;6.06;69.22;100016.73;1812448;79;27574;-53
2023/04/23 03:56:24;;;;;;;91.50;83.90;;;;;;;6.05;69.26;100021.84;1812372;78;25354;-53
2023/04/23 03:58:51;;;;;;;43.65;37.78;;;;;;;6.05;69.55;100025.08;1812384;78;25365;-53
2023/04/23 04:01:19;;;;;;;34.90;26.17;;;;;;;6.06;69.60;100026.14;1812339;78;27711;-54
2023/04/23 04:03:46;;;;;;;44.98;40.38;;;;;;;6.07;69.65;100028.27;1812390;79;25396;-53
2023/04/23 04:06:13;;;;;;;96.50;88.33;;;;;;;6.08;69.60;100022.62;1812386;78;27545;-54
2023/04/23 04:08:39;;;;;;;93.00;84.95;;;;;;;6.12;69.79;100025.53;1812340;79;25535;-53
2023/04/23 04:11:05;;;;;;;62.20;56.28;;;;;;;6.14;69.96;100026.83;1812417;78;25435;-52
2023/04/23 04:13:31;;;;;;;25.55;15.43;;;;;;;6.15;69.98;100032.47;1812324;79;25484;-56
2023/04/23 04:15:59;;;;;;;31.85;21.48;;;;;;;6.21;70.04;100027.04;1812454;78;32791;-57
2023/04/23 04:18:26;;;;;;;22.82;13.48;;;;;;;6.26;70.82;100029.11;1812432;78;27607;-52
2023/04/23 04:20:53;;;;;;;29.30;16.75;;;;;;;6.32;70.20;100031.22;1812312;78;25504;-53
2023/04/23 04:23:20;;;;;;;72.58;66.20;;;;;;;6.38;70.15;100030.05;1812412;78;25535;-55
2023/04/23 04:25:49;;;;;;;29.70;25.82;;;;;;;6.44;70.25;100026.23;1812391;79;25442;-56
2023/04/23 04:28:17;;;;;;;93.55;85.67;;;;;;;6.51;70.02;100024.54;1812644;78;25388;-55
2023/04/23 04:30:46;;;;;;;92.12;84.83;;;;;;;6.54;69.94;100023.97;1812523;78;27497;-53
2023/04/23 04:33:13;;;;;;;94.55;86.80;;;;;;;6.59;70.06;100022.56;1812684;79;25565;-53
2023/04/23 04:35:41;;;;;;;93.40;86.02;;;;;;;6.66;70.11;100022.20;1812694;78;25388;-55
2023/04/23 04:38:09;;;;;;;92.75;85.17;;;;;;;6.72;69.99;100017.00;1812519;79;25447;-54
2023/04/23 04:40:36;;;;;;;89.87;82.47;;;;;;;6.80;69.93;100024.42;1812581;78;25516;-54
2023/04/23 04:43:06;;;;;;;90.65;83.37;;;;;;;6.87;69.87;100030.78;1799520;79;27544;-56
2023/04/23 04:45:33;;;;;;;45.00;40.63;;;;;;;6.95;69.94;100030.14;1807210;79;25513;-56
2023/04/23 04:48:03;;;;;;;39.55;35.52;;;;;;;7.04;69.86;100034.31;1805825;78;25669;-54
2023/04/23 04:50:30;;;;;;;92.70;85.22;;;;;;;7.14;69.74;100025.30;1804970;79;25607;-55
2023/04/23 04:52:58;;;;;;;47.35;43.02;;;;;;;7.28;69.60;100026.14;1805116;79;25710;-55
2023/04/23 04:55:24;;;;;;;25.77;18.27;;;;;;;7.38;69.41;100026.53;1805324;78;26999;-54
2023/04/23 04:57:52;;;;;;;79.15;72.65;;;;;;;7.50;69.30;100034.16;1804459;78;25834;-56
2023/04/23 05:00:28;;;;;;;80.65;74.00;;;;;;;7.60;69.17;100029.39;1805406;78;25678;-52
2023/04/23 05:02:59;;;;;;;76.00;69.50;;;;;;;7.72;69.00;100029.47;1806906;79;25641;-53
2023/04/23 05:05:27;;;;;;;85.12;78.37;;;;;;;7.81;68.83;100024.44;1805859;79;25606;-52
2023/04/23 05:07:58;;;;;;;83.95;76.97;;;;;;;7.92;68.52;100025.62;1806439;79;27515;-52
2023/04/23 05:10:23;;;;;;;;;;;;;;;8.04;68.50;100019.20;1808570;78;25401;-53
2023/04/23 05:12:50;;;;;;;58.92;54.05;;;;;;;8.19;68.30;100024.30;1806032;79;29631;-52
2023/04/23 05:15:18;;;;;;;64.82;59.53;;;;;;;8.31;68.23;100024.32;1805575;79;25507;-53
2023/04/23 05:17:45;;;;;;;89.15;81.95;;;;;;;8.41;67.76;100029.51;1806360;79;25373;-52
2023/04/23 05:20:13;;;;;;;30.95;27.17;;;;;;;8.54;67.79;100027.38;1805314;79;27493;-52
2023/04/23 05:22:42;;;;;;;90.97;83.75;;;;;;;8.67;67.36;100031.17;1805055;79;25915;-53
2023/04/23 05:25:11;;;;;;;77.12;70.78;;;;;;;8.84;67.28;100032.45;1805656;78;25551;-56
2023/04/23 05:27:40;;;;;;;89.13;82.12;;;;;;;8.98;66.83;100027.25;1806199;78;25662;-53
2023/04/23 05:30:10;;;;;;;87.50;80.60;;;;;;;9.14;66.88;100028.23;1806228;78;25378;-52
2023/04/23 05:32:38;;;;;;;87.10;80.22;;;;;;;9.31;66.22;100024.88;1805677;78;28071;-52
2023/04/23 05:35:08;;;;;;;89.20;82.00;;;;;;;9.47;66.29;100026.11;1806231;78;25518;-55
2023/04/23 05:37:35;;;;;;;86.60;79.75;;;;;;;9.64;66.05;100033.52;1806200;78;25362;-52
2023/04/23 05:40:01;;;;;;;88.35;81.55;;;;;;;9.84;65.42;100033.56;1805937;79;25631;-54
2023/04/23 05:42:29;;;;;;;87.33;81.05;;;;;;;10.05;64.87;100030.31;1805707;77;25534;-57
2023/04/23 05:44:55;;;;;;;91.02;83.90;;;;;;;10.25;65.15;100028.97;1812932;78;27486;-53
2023/04/23 05:47:21;;;;;;;87.80;81.40;;;;;;;10.47;64.85;100028.08;1813033;78;25575;-53
2023/04/23 05:49:48;;;;;;;87.37;81.08;;;;;;;10.70;64.07;100027.42;1810706;78;25360;-54
2023/04/23 05:52:18;;;;;;;86.72;80.35;;;;;;;10.92;63.76;100024.36;1807813;79;25472;-53
2023/04/23 05:54:45;;;;;;;88.33;81.65;;;;;;;11.18;63.35;100028.41;1809468;79;25630;-57
2023/04/23 05:57:11;;;;;;;86.22;79.80;;;;;;;11.44;62.68;100023.52;1808359;78;29616;-52
2023/04/23 05:59:37;;;;;;;87.80;80.95;;;;;;;11.68;62.10;100025.16;1808233;78;25627;-56
2023/04/23 06:02:04;;;;;;;87.30;80.75;;;;;;;11.92;61.52;100019.79;1807571;78;29617;-53
2023/04/23 06:04:30;;;;;;;84.95;78.45;;;;;;;12.21;61.05;100025.80;1808117;78;25585;-55
2023/04/23 06:06:57;;;;;;;80.25;74.40;;;;;;;12.46;60.47;100018.66;1807594;79;25526;-55
2023/04/23 06:09:24;;;;;;;84.32;78.12;;;;;;;12.68;59.63;100017.57;1807526;78;27489;-56
2023/04/23 06:11:53;;;;;;;84.92;78.80;;;;;;;12.96;59.46;100016.25;1808415;78;25512;-53
2023/04/23 06:14:19;;;;;;;83.65;77.50;;;;;;;13.24;58.56;100013.19;1791762;79;25386;-55
2023/04/23 06:16:46;;;;;;;39.83;36.38;;;;;;;13.53;58.00;100017.52;1808359;79;25587;-56
2023/04/23 06:19:13;;;;;;;78.42;72.82;;;;;;;13.80;57.28;100015.53;1809069;78;25571;-53
2023/04/23 06:21:40;;;;;;;84.17;78.28;;;;;;;14.10;56.70;100024.88;1807530;79;27568;-57
2023/04/23 06:24:07;;;;;;;81.70;76.07;;;;;;;14.39;56.12;100020.35;1809463;78;25539;-55
2023/04/23 06:26:34;;;;;;;83.70;77.87;;;;;;;14.65;54.43;100011.05;1808290;78;25411;-57
2023/04/23 06:29:01;;;;;;;13.20;7.60;;;;;;;14.92;53.95;100011.66;1808371;78;25575;-54
2023/04/23 06:31:28;;;;;;;13.35;8.10;;;;;;;15.22;52.92;100018.70;1808119;79;25194;-54
2023/04/23 06:33:55;;;;;;;14.78;8.13;;;;;;;15.49;52.67;100019.83;1808450;79;27481;-57
2023/04/23 06:36:24;;;;;;;12.23;8.30;;;;;;;15.79;52.03;100017.53;1808528;78;25499;-55
2023/04/23 06:38:50;;;;;;;13.93;8.18;;;;;;;16.15;51.94;100014.32;1807551;78;25434;-55
2023/04/23 06:41:18;;;;;;;15.45;7.75;;;;;;;16.49;50.58;100015.30;1807258;78;25537;-58
2023/04/23 06:43:44;;;;;;;10.68;7.25;;;;;;;16.78;50.25;100010.67;1807404;78;25827;-54
2023/04/23 06:46:12;;;;;;;13.00;7.75;;;;;;;17.13;49.55;100018.06;1809661;79;27492;-57
2023/04/23 06:48:38;;;;;;;9.45;7.30;;;;;;;17.47;48.12;100016.14;1807111;79;25397;-58
2023/04/23 06:51:06;;;;;;;12.50;7.40;;;;;;;17.70;47.05;100014.23;1805685;78;25568;-55
2023/04/23 06:53:34;;;;;;;13.03;7.60;;;;;;;17.94;46.42;100015.64;1810516;79;26022;-55
2023/04/23 06:56:00;;;;;;;9.80;7.35;;;;;;;18.25;46.26;100013.20;1808245;78;25388;-58
2023/04/23 06:58:30;;;;;;;12.23;7.00;;;;;;;18.58;43.65;100015.27;1805263;78;27457;-54
2023/04/23 07:00:56;;;;;;;11.45;6.87;;;;;;;18.78;43.41;100007.71;1811580;78;25584;-57
2023/04/23 07:03:24;;;;;;;11.65;6.87;;;;;;;18.97;43.18;100002.69;1808164;78;25633;-54
2023/04/23 07:05:53;;;;;;;11.12;6.20;;;;;;;19.18;42.43;100004.11;1808580;78;25595;-57
2023/04/23 07:08:21;;;;;;;10.00;5.92;;;;;;;19.43;41.62;100000.83;1804525;79;25512;-58
2023/04/23 07:10:50;;;;;;;10.93;6.10;;;;;;;19.55;39.95;99996.47;1804528;78;27500;-57
2023/04/23 07:13:16;;;;;;;10.67;5.60;;;;;;;19.68;39.55;100000.52;1808024;79;25413;-56
2023/04/23 07:15:43;;;;;;;8.53;5.35;;;;;;;19.93;39.83;100002.13;1805514;78;25571;-58
2023/04/23 07:18:11;;;;;;;11.35;5.53;;;;;;;20.21;38.82;99991.73;1808219;79;25504;-58
2023/04/23 07:20:38;;;;;;;6.55;5.33;;;;;;;20.38;35.16;100002.64;1804748;79;25530;-55
2023/04/23 07:23:06;;;;;;;10.95;5.75;;;;;;;20.49;37.33;100005.66;1808127;78;27605;-56
2023/04/23 07:25:33;;;;;;;6.83;5.27;;;;;;;20.99;36.51;100000.24;1809555;79;25579;-56
2023/04/23 07:27:59;;;;;;;8.73;5.03;;;;;;;20.99;36.51;100000.24;1806738;78;25553;-57
2023/04/23 07:30:27;;;;;;;8.10;5.20;;;;;;;21.13;35.67;100000.31;1804540;78;25676;-57
2023/04/23 07:32:55;;;;;;;8.18;5.35;;;;;;;21.35;34.86;99997.60;1804568;78;25428;-58
2023/04/23 07:35:22;;;;;;;9.53;5.03;;;;;;;21.54;34.55;99990.41;1805317;79;27453;-58
2023/04/23 07:37:52;;;;;;;7.37;5.37;;;;;;;21.65;33.36;99989.04;1812338;78;25428;-57
2023/04/23 07:40:20;;;;;;;5.25;4.62;;;;;;;21.56;33.33;99986.67;1801193;79;25469;-57
2023/04/23 07:42:50;;;;;;;8.23;4.80;;;;;;;21.78;33.13;99998.49;1810400;78;25459;-58
2023/04/23 07:45:19;;;;;;;10.93;4.90;;;;;;;21.91;33.47;99989.84;1809239;78;25601;-58
2023/04/23 07:47:48;;;;;;;6.42;4.62;;;;;;;22.15;32.76;99989.05;1807536;79;27551;-58
2023/04/23 07:50:16;;;;;;;5.30;4.67;;;;;;;22.39;31.32;99986.69;1808776;79;25570;-57
2023/04/23 07:52:43;;;;;;;6.83;4.60;;;;;;;22.36;31.31;99998.49;1808965;79;25398;-58
2023/04/23 07:55:09;;;;;;;9.68;4.80;;;;;;;22.33;31.09;99988.26;1808681;79;25582;-58
2023/04/23 07:57:37;;;;;;;6.55;4.67;;;;;;;22.35;31.11;99986.66;1809066;78;25364;-58
2023/04/23 08:00:08;;;;;;;6.90;4.78;;;;;;;22.53;31.75;99981.13;1808355;78;28024;-59
2023/04/23 08:02:36;;;;;;;4.78;4.22;;;;;;;22.84;31.78;99979.25;1806945;78;25573;-58
2023/04/23 08:05:06;;;;;;;7.87;4.50;;;;;;;23.15;30.42;99979.53;1808649;79;25618;-56
2023/04/23 08:07:35;;;;;;;7.22;4.30;;;;;;;23.40;30.21;99988.45;1807861;79;25548;-56
2023/04/23 08:10:04;;;;;;;;;;;;;;;23.65;30.17;99983.33;1810769;79;25414;-57
2023/04/23 08:12:34;;;;;;;7.37;4.15;;;;;;;23.63;27.69;99974.68;1808950;79;28110;-57
2023/04/23 08:15:04;;;;;;;6.78;4.03;;;;;;;23.57;29.01;99970.20;1808866;78;25538;-57
2023/04/23 08:17:33;;;;;;;6.80;4.30;;;;;;;23.79;29.69;99975.56;1808843;78;25461;-57
2023/04/23 08:20:00;;;;;;;5.17;4.15;;;;;;;24.11;27.57;99970.36;1808060;78;25573;-62
2023/04/23 08:22:27;;;;;;;8.60;4.40;;;;;;;23.98;27.34;99965.35;1808549;78;25448;-57
2023/04/23 08:24:56;;;;;;;7.22;4.05;;;;;;;23.95;27.95;99968.15;1808597;78;27500;-59
2023/04/23 08:27:22;;;;;;;7.15;4.47;;;;;;;23.98;26.45;99976.40;1807895;78;25360;-61
2023/04/23 08:29:48;;;;;;;5.17;3.92;;;;;;;24.11;28.07;99957.92;1807288;79;25400;-65
2023/04/23 08:32:14;;;;;;;5.40;4.10;;;;;;;24.33;27.54;99971.73;1807313;79;27732;-54
2023/04/23 08:34:40;;;;;;;5.97;3.58;;;;;;;24.36;27.02;99965.36;1807812;79;25605;-58
2023/04/23 08:37:07;;;;;;;4.90;3.45;;;;;;;24.40;25.09;99960.59;1808933;78;29669;-56
2023/04/23 08:39:34;;;;;;;9.35;3.75;;;;;;;24.35;26.41;99953.37;1808694;79;25483;-57
2023/04/23 08:42:12;;;;;;;4.03;3.27;;;;;;;24.46;25.55;99967.06;1808199;78;25393;-58
2023/04/23 08:44:42;;;;;;;4.78;3.25;;;;;;;24.23;25.87;99958.20;1807235;78;25551;-56
2023/04/23 08:47:11;;;;;;;8.03;4.00;;;;;;;24.23;25.69;99954.06;1807518;79;25538;-55
2023/04/23 08:49:42;;;;;;;7.65;3.83;;;;;;;24.32;25.77;99956.34;1776098;80;27550;-57
2023/04/23 08:52:16;;;;;;;5.47;3.50;;;;;;;24.32;26.07;99951.42;1776168;80;25766;-57
2023/04/23 08:54:48;;;;;;;4.10;3.60;;;;;;;24.46;26.18;99949.87;1772779;80;25551;-57
2023/04/23 08:57:16;;;;;;;5.08;3.30;;;;;;;24.60;26.19;99955.86;1772705;81;25707;-64
2023/04/23 08:59:46;;;;;;;6.62;3.87;;;;;;;24.80;25.56;99944.95;1776492;80;25563;-62
2023/04/23 09:02:14;;;;;;;4.12;3.30;;;;;;;24.98;24.49;99950.27;1779157;79;28205;-62
2023/04/23 09:04:41;;;;;;;9.00;4.10;;;;;;;25.10;25.84;99959.98;1774333;80;25598;-52
2023/04/23 09:07:10;;;;;;;5.53;3.98;;;;;;;25.28;25.49;99937.60;1773618;80;25510;-52
2023/04/23 09:09:38;;;;;;;4.87;3.58;;;;;;;25.24;25.80;99934.09;1773774;80;25544;-50
2023/04/23 09:12:09;;;;;;;4.10;3.40;;;;;;;25.21;24.64;99934.92;1776400;80;25677;-54
2023/04/23 09:14:36;;;;;;;6.78;4.10;;;;;;;25.04;25.23;99932.59;1772954;80;27477;-51
2023/04/23 09:17:03;;;;;;;6.30;3.70;;;;;;;25.07;24.91;99928.99;1772774;81;25616;-52
2023/04/23 09:19:30;;;;;;;3.90;3.33;;;;;;;25.31;24.68;99935.39;1772886;81;25389;-50
2023/04/23 09:22:00;;;;;;;3.80;3.17;;;;;;;25.24;25.06;99930.70;1772840;80;25449;-52
2023/04/23 09:24:27;;;;;;;4.15;3.17;;;;;;;25.31;25.09;99928.47;1775249;80;25555;-50
2023/04/23 09:26:53;;;;;;;4.95;3.00;;;;;;;25.45;24.72;99926.08;1774694;80;27865;-52
2023/04/23 09:29:22;;;;;;;3.62;3.20;;;;;;;25.39;24.90;99916.67;1775915;80;25758;-51
2023/04/23 09:31:52;;;;;;;4.35;3.20;;;;;;;25.63;24.25;99932.72;1773792;80;25428;-54
2023/04/23 09:34:22;;;;;;;7.03;3.37;;;;;;;25.70;24.36;99938.91;1762302;80;26100;-51
2023/04/23 09:36:51;;;;;;;5.47;2.98;;;;;;;25.70;23.73;99924.28;1774071;80;25453;-52
2023/04/23 09:39:21;;;;;;;6.50;3.33;;;;;;;25.62;22.73;99918.07;1776356;80;28074;-51
2023/04/23 09:41:52;;;;;;;4.47;3.08;;;;;;;25.49;24.03;99908.21;1772069;80;25447;-52
2023/04/23 09:44:21;;;;;;;2.87;2.55;;;;;;;25.65;23.43;99919.23;1773549;80;25599;-54
2023/04/23 09:46:48;;;;;;;6.78;3.12;;;;;;;25.46;22.71;99907.66;1773586;80;26116;-60
2023/04/23 09:49:15;;;;;;;5.53;3.33;;;;;;;25.48;22.46;99910.79;1773446;80;25540;-61
2023/04/23 09:51:47;;;;;;;3.58;2.47;;;;;;;25.49;22.61;99917.13;1773197;80;27568;-61
2023/04/23 09:54:21;;;;;;;5.08;3.20;;;;;;;25.39;22.84;99902.83;1772299;80;25610;-62
2023/04/23 09:56:59;;;;;;;4.78;3.25;;;;;;;25.57;22.81;99913.62;1772920;80;25657;-60
2023/04/23 09:59:30;;;;;;;3.62;3.30;;;;;;;25.49;23.19;99901.90;1772990;80;25941;-59
2023/04/23 10:02:01;;;;;;;7.83;3.35;;;;;;;25.65;23.11;99902.00;1773085;79;25435;-61
2023/04/23 10:04:28;;;;;;;5.12;3.70;;;;;;;25.69;23.15;99893.05;1773014;80;27791;-61
2023/04/23 10:06:57;;;;;;;5.28;3.00;;;;;;;25.96;23.15;99902.50;1773199;79;25698;-61
2023/04/23 10:09:27;;;;;;;3.37;3.08;;;;;;;26.11;21.93;99901.02;1773407;80;25591;-61
2023/04/23 10:11:57;;;;;;;3.35;3.00;;;;;;;26.07;22.89;99885.08;1773214;80;26157;-60
2023/04/23 10:14:26;;;;;;;8.43;3.60;;;;;;;26.18;22.38;99887.64;1773033;80;25374;-54
2023/04/23 10:16:59;;;;;;;4.00;2.85;;;;;;;26.11;22.44;99887.78;1771974;80;27796;-52
2023/04/23 10:19:28;;;;;;;4.28;3.25;;;;;;;26.19;22.26;99897.52;1773389;80;25552;-57
2023/04/23 10:22:04;;;;;;;4.70;3.08;;;;;;;26.18;20.92;99887.64;1773582;80;25449;-56
2023/04/23 10:24:37;;;;;;;8.90;3.00;;;;;;;26.12;22.71;99874.89;1773283;80;26220;-57
2023/04/23 10:27:07;;;;;;;3.50;2.80;;;;;;;26.77;22.71;99880.52;1773613;79;25533;-56
2023/04/23 10:30:00;;;;;;;6.75;3.02;;;;;;;26.80;21.64;99874.08;1773224;80;27493;-55
2023/04/23 10:32:27;;;;;;;4.47;2.77;;;;;;;26.66;21.67;99861.31;1759559;80;25761;-53
2023/04/23 10:34:53;;;;;;;5.25;3.00;;;;;;;27.09;21.86;99889.50;1759515;81;25521;-58
2023/04/23 10:37:22;;;;;;;5.10;2.98;;;;;;;27.12;21.37;99869.80;1759507;81;25638;-60
2023/04/23 10:39:55;;;;;;;5.87;2.95;;;;;;;27.12;21.10;99867.02;1759902;81;25302;-59
2023/04/23 10:42:23;;;;;;;2.92;2.62;;;;;;;27.11;21.38;99869.64;1734314;81;27589;-59
2023/04/23 10:44:59;;;;;;;6.27;3.03;;;;;;;27.17;21.47;99861.72;1759726;81;25685;-60
2023/04/23 10:47:26;;;;;;;4.33;3.08;;;;;;;27.57;20.69;99864.34;1759499;81;25675;-61
2023/04/23 10:49:53;;;;;;;3.55;3.02;;;;;;;27.62;20.45;99853.91;1759661;81;25717;-58
2023/04/23 10:52:22;;;;;;;3.08;2.77;;;;;;;27.74;19.85;99852.59;1759324;81;25313;-58
2023/04/23 10:54:58;;;;;;;5.58;3.70;;;;;;;27.87;19.52;99857.42;1757943;81;27474;-60
2023/04/23 10:57:25;;;;;;;4.75;3.50;;;;;;;27.74;19.85;99842.09;1757656;81;25724;-59
2023/04/23 10:59:57;;;;;;;5.60;3.10;;;;;;;27.71;19.25;99846.52;1757820;81;25765;-54
2023/04/23 11:02:24;;;;;;;4.90;3.37;;;;;;;27.73;19.51;99830.19;1772717;77;25623;-57
2023/04/23 11:04:57;;;;;;;3.50;2.95;;;;;;;27.41;19.80;99843.53;1829787;78;25769;-58
2023/04/23 11:07:33;;;;;;;4.70;3.27;;;;;;;27.15;19.80;99846.73;1829769;78;27451;-57
2023/04/23 11:10:12;;;;;;;3.42;3.12;;;;;;;26.92;19.84;99843.50;1830291;78;25693;-57
2023/04/23 11:12:40;;;;;;;6.03;3.17;;;;;;;26.99;20.58;99826.70;1831034;78;25392;-58
2023/04/23 11:15:16;;;;;;;6.08;3.30;;;;;;;27.65;20.82;99826.06;1830915;78;25534;-58
2023/04/23 11:17:48;;;;;;;3.70;3.35;;;;;;;27.82;20.41;99821.25;1807784;78;25538;-57
2023/04/23 11:20:21;;;;;;;4.12;3.17;;;;;;;27.97;20.42;99819.48;1830976;78;29619;-58
2023/04/23 11:22:51;;;;;;;5.75;3.30;;;;;;;28.23;20.72;99813.36;1830905;78;25748;-57
2023/04/23 11:25:25;;;;;;;6.30;3.15;;;;;;;28.50;19.81;99821.30;1830992;78;25527;-58